createdAt,value
2019-03-22T00:02:20.875Z,29.85
2019-03-22T00:04:49.279Z,37.20
2019-03-22T00:07:17.672Z,32.65
2019-03-22T00:09:46.080Z,29.98
2019-03-22T00:12:14.713Z,32.33
2019-03-22T00:14:43.342Z,35.17
2019-03-22T00:17:11.745Z,35.43
2019-03-22T00:19:40.142Z,48.05
2019-03-22T00:22:08.549Z,51.63
2019-03-22T00:24:36.940Z,80.22
2019-03-22T00:27:16.018Z,88.92
2019-03-22T00:29:35.685Z,116.85
2019-03-22T00:32:04.382Z,89.37
2019-03-22T00:34:33.027Z,64.87
2019-03-22T00:37:01.658Z,49.40
2019-03-22T00:39:30.111Z,80.12
2019-03-22T00:41:58.757Z,67.22
2019-03-22T00:44:27.159Z,38.65
2019-03-22T00:46:55.565Z,61.55
2019-03-22T00:49:24.190Z,42.93
2019-03-22T00:51:52.582Z,34.40
2019-03-22T00:54:20.982Z,34.35
2019-03-22T00:56:49.611Z,40.63
2019-03-22T00:59:18.254Z,33.15
2019-03-22T01:01:46.699Z,37.08
2019-03-22T01:04:15.327Z,33.10
2019-03-22T01:06:43.727Z,51.50
2019-03-22T01:09:12.357Z,46.23
2019-03-22T01:11:40.773Z,48.25
2019-03-22T01:14:09.162Z,55.10
2019-03-22T01:16:37.788Z,46.60
2019-03-22T01:19:06.188Z,69.58
2019-03-22T01:21:34.576Z,64.90
2019-03-22T01:24:02.980Z,74.12
2019-03-22T01:26:31.380Z,86.70
2019-03-22T01:28:59.940Z,51.75
2019-03-22T01:31:28.396Z,72.17
2019-03-22T01:33:57.025Z,76.35
2019-03-22T01:36:25.432Z,92.75
2019-03-22T01:38:54.057Z,63.68
2019-03-22T01:41:22.701Z,85.30
2019-03-22T01:43:51.103Z,79.55
2019-03-22T01:46:19.494Z,99.42
2019-03-22T01:48:47.897Z,65.90
2019-03-22T01:51:16.530Z,92.15
2019-03-22T01:53:45.232Z,58.42
2019-03-22T01:56:13.635Z,101.20
2019-03-22T01:58:42.028Z,68.00
2019-03-22T02:01:10.435Z,52.13
2019-03-22T02:03:38.948Z,52.58
2019-03-22T02:06:07.592Z,60.35
2019-03-22T02:08:36.231Z,73.15
2019-03-22T02:11:04.931Z,124.53
2019-03-22T02:13:33.398Z,119.42
2019-03-22T02:16:01.791Z,82.37
2019-03-22T02:18:30.427Z,93.70
2019-03-22T02:20:58.837Z,54.53
2019-03-22T02:23:27.467Z,49.27
2019-03-22T02:25:56.115Z,49.38
2019-03-22T02:28:24.743Z,65.03
2019-03-22T02:30:53.148Z,49.15
2019-03-22T02:33:21.597Z,51.70
2019-03-22T02:35:49.998Z,53.23
2019-03-22T02:38:18.637Z,44.20
2019-03-22T02:40:47.438Z,52.98
2019-03-22T02:43:15.883Z,44.03
2019-03-22T02:45:44.463Z,49.75
2019-03-22T02:48:12.858Z,46.18
2019-03-22T02:50:41.265Z,61.45
2019-03-22T02:53:09.660Z,44.73
2019-03-22T02:55:38.053Z,47.65
2019-03-22T02:58:19.878Z,40.17
2019-03-22T03:00:36.571Z,51.02
2019-03-22T03:03:05.039Z,46.45
2019-03-22T03:05:33.429Z,42.70
2019-03-22T03:08:01.823Z,52.35
2019-03-22T03:10:30.230Z,38.45
2019-03-22T03:12:58.621Z,35.88
2019-03-22T03:15:27.038Z,46.37
2019-03-22T03:17:55.426Z,44.30
2019-03-22T03:20:24.056Z,54.75
2019-03-22T03:22:52.462Z,46.08
2019-03-22T03:25:21.141Z,39.80
2019-03-22T03:27:49.774Z,37.48
2019-03-22T03:30:19.515Z,46.63
2019-03-22T03:32:47.903Z,47.67
2019-03-22T03:35:16.873Z,45.25
2019-03-22T03:37:45.518Z,43.23
2019-03-22T03:40:14.759Z,51.33
2019-03-22T03:42:43.136Z,39.30
2019-03-22T03:45:32.628Z,44.20
2019-03-22T03:48:02.046Z,44.65
2019-03-22T03:50:30.504Z,39.38
2019-03-22T03:52:59.149Z,53.40
2019-03-22T03:55:28.592Z,62.78
2019-03-22T03:57:57.350Z,77.67
2019-03-22T04:00:25.733Z,49.58
2019-03-22T04:02:54.119Z,71.37
2019-03-22T04:05:22.508Z,76.42
2019-03-22T04:07:51.528Z,46.08
2019-03-22T04:10:19.917Z,45.83
2019-03-22T04:12:48.310Z,66.75
2019-03-22T04:15:16.958Z,43.92
2019-03-22T04:17:45.335Z,47.78
2019-03-22T04:20:13.798Z,51.83
2019-03-22T04:22:42.206Z,52.27
2019-03-22T04:25:10.670Z,51.85
2019-03-22T04:27:39.052Z,57.23
2019-03-22T04:30:08.199Z,54.48
2019-03-22T04:32:36.820Z,50.10
2019-03-22T04:35:07.351Z,52.80
2019-03-22T04:37:35.759Z,54.10
2019-03-22T04:40:18.907Z,54.80
2019-03-22T04:42:47.420Z,51.00
2019-03-22T04:45:16.264Z,54.00
2019-03-22T04:47:46.160Z,69.40
2019-03-22T04:50:15.251Z,57.50
2019-03-22T04:52:43.879Z,54.55
2019-03-22T04:55:13.862Z,54.38
2019-03-22T04:57:43.487Z,60.63
2019-03-22T05:00:12.454Z,60.15
2019-03-22T05:02:42.252Z,62.00
2019-03-22T05:05:13.224Z,41.48
2019-03-22T05:07:42.805Z,51.28
2019-03-22T05:10:14.000Z,54.85
2019-03-22T05:12:43.927Z,47.62
2019-03-22T05:15:14.336Z,53.70
2019-03-22T05:17:43.701Z,66.40
2019-03-22T05:20:12.645Z,58.83
2019-03-22T05:22:42.685Z,66.17
2019-03-22T05:25:11.505Z,58.40
2019-03-22T05:27:42.731Z,58.63
2019-03-22T05:30:14.178Z,53.20
2019-03-22T05:32:42.813Z,76.05
2019-03-22T05:35:11.207Z,53.85
2019-03-22T05:37:39.843Z,56.30
2019-03-22T05:40:08.395Z,60.40
2019-03-22T05:42:37.029Z,53.75
2019-03-22T05:45:07.299Z,53.75
2019-03-22T05:47:35.936Z,55.00
2019-03-22T05:50:06.222Z,53.75
2019-03-22T05:52:34.845Z,46.70
2019-03-22T05:55:03.534Z,62.73
2019-03-22T05:57:31.933Z,53.33
2019-03-22T06:00:00.332Z,52.13
2019-03-22T06:02:28.735Z,51.00
2019-03-22T06:04:57.124Z,56.40
2019-03-22T06:07:25.515Z,52.48
2019-03-22T06:09:54.181Z,54.15
2019-03-22T06:12:22.798Z,53.50
2019-03-22T06:14:51.206Z,60.98
2019-03-22T06:17:19.588Z,51.73
2019-03-22T06:19:48.262Z,51.15
2019-03-22T06:22:16.850Z,54.05
2019-03-22T06:24:45.483Z,50.60
2019-03-22T06:27:14.145Z,57.43
2019-03-22T06:29:53.618Z,55.15
2019-03-22T06:32:12.876Z,56.28
2019-03-22T06:34:41.351Z,57.98
2019-03-22T06:37:09.965Z,53.15
2019-03-22T06:39:38.369Z,60.58
2019-03-22T06:42:06.995Z,67.03
2019-03-22T06:44:35.640Z,67.60
2019-03-22T06:47:04.327Z,54.13
2019-03-22T06:49:32.954Z,88.22
2019-03-22T06:52:01.414Z,55.33
2019-03-22T06:54:31.911Z,52.95
2019-03-22T06:56:59.930Z,64.65
2019-03-22T06:59:28.321Z,54.50
2019-03-22T07:01:56.950Z,62.75
2019-03-22T07:04:25.351Z,74.37
2019-03-22T07:06:53.738Z,51.63
2019-03-22T07:09:22.140Z,46.95
2019-03-22T07:11:50.763Z,63.85
2019-03-22T07:14:19.171Z,46.65
2019-03-22T07:16:47.562Z,48.17
2019-03-22T07:19:16.188Z,54.42
2019-03-22T07:21:44.826Z,54.38
2019-03-22T07:24:13.214Z,55.98
2019-03-22T07:26:41.634Z,53.50
2019-03-22T07:29:10.261Z,44.73
2019-03-22T07:31:38.643Z,53.92
2019-03-22T07:34:07.048Z,48.75
2019-03-22T07:36:35.681Z,56.68
2019-03-22T07:39:07.122Z,51.30
2019-03-22T07:41:35.516Z,46.05
2019-03-22T07:44:04.143Z,55.65
2019-03-22T07:46:32.551Z,62.98
2019-03-22T07:49:00.936Z,57.87
2019-03-22T07:51:29.343Z,63.38
2019-03-22T07:53:57.972Z,70.08
2019-03-22T07:56:26.594Z,51.63
2019-03-22T07:58:55.041Z,59.97
2019-03-22T08:01:23.425Z,67.27
2019-03-22T08:03:52.138Z,61.45
2019-03-22T08:06:20.522Z,54.53
2019-03-22T08:08:49.142Z,67.27
2019-03-22T08:11:17.797Z,61.90
2019-03-22T08:13:46.223Z,48.70
2019-03-22T08:16:14.857Z,84.50
2019-03-22T08:18:43.523Z,47.03
2019-03-22T08:21:11.877Z,67.93
2019-03-22T08:23:41.149Z,47.87
2019-03-22T08:26:09.773Z,59.20
2019-03-22T08:28:38.411Z,61.40
2019-03-22T08:31:07.037Z,57.47
2019-03-22T08:33:35.648Z,73.03
2019-03-22T08:36:04.121Z,58.73
2019-03-22T08:38:32.757Z,70.13
2019-03-22T08:41:01.367Z,57.13
2019-03-22T08:43:29.740Z,66.63
2019-03-22T08:45:58.160Z,60.00
2019-03-22T08:48:26.564Z,51.53
2019-03-22T08:50:54.957Z,56.20
2019-03-22T08:53:23.345Z,57.10
2019-03-22T08:55:51.731Z,73.30
2019-03-22T08:58:20.133Z,53.20
2019-03-22T09:00:57.497Z,53.83
2019-03-22T09:03:19.108Z,50.97
2019-03-22T09:05:47.731Z,53.40
2019-03-22T09:08:16.387Z,54.20
2019-03-22T09:10:44.826Z,57.37
2019-03-22T09:13:13.434Z,59.50
2019-03-22T09:15:42.213Z,64.97
2019-03-22T09:18:10.678Z,64.97
2019-03-22T09:20:39.268Z,51.20
2019-03-22T09:23:07.673Z,63.63
2019-03-22T09:25:36.057Z,51.90
2019-03-22T09:28:04.499Z,49.53
2019-03-22T09:30:33.187Z,68.40
2019-03-22T09:33:01.550Z,51.73
2019-03-22T09:35:30.007Z,54.20
2019-03-22T09:37:58.647Z,55.33
2019-03-22T09:40:27.261Z,54.37
2019-03-22T09:42:55.646Z,56.70
2019-03-22T09:45:24.299Z,59.40
2019-03-22T09:47:52.710Z,56.10
2019-03-22T09:50:21.342Z,57.13
2019-03-22T09:52:49.719Z,48.23
2019-03-22T09:55:18.142Z,56.10
2019-03-22T09:57:49.302Z,49.20
2019-03-22T10:00:28.484Z,53.50
2019-03-22T10:02:57.028Z,50.67
2019-03-22T10:05:25.412Z,56.03
2019-03-22T10:07:53.761Z,54.10
2019-03-22T10:10:22.209Z,53.40
2019-03-22T10:12:50.903Z,46.93
2019-03-22T10:15:19.338Z,50.40
2019-03-22T10:17:47.935Z,63.17
2019-03-22T10:20:16.555Z,50.63
2019-03-22T10:22:45.216Z,57.37
2019-03-22T10:25:13.638Z,51.50
2019-03-22T10:27:41.971Z,58.97
2019-03-22T10:30:15.938Z,52.17
2019-03-22T10:32:44.341Z,50.17
2019-03-22T10:35:25.543Z,50.70
2019-03-22T10:37:42.979Z,52.80
2019-03-22T10:40:11.507Z,48.87
2019-03-22T10:42:39.934Z,52.17
2019-03-22T10:45:08.869Z,59.90
2019-03-22T10:47:37.456Z,67.53
2019-03-22T10:50:06.885Z,48.33
2019-03-22T10:52:35.291Z,60.83
2019-03-22T10:55:23.328Z,48.93
2019-03-22T10:57:34.672Z,47.13
2019-03-22T11:00:04.764Z,60.27
2019-03-22T11:02:33.373Z,54.00
2019-03-22T11:05:02.306Z,46.20
2019-03-22T11:07:31.156Z,58.13
2019-03-22T11:09:59.700Z,50.93
2019-03-22T11:12:28.345Z,52.47
2019-03-22T11:14:56.741Z,50.57
2019-03-22T11:17:25.124Z,49.13
2019-03-22T11:19:53.755Z,53.73
2019-03-22T11:22:22.148Z,51.07
2019-03-22T11:24:50.552Z,37.30
2019-03-22T11:27:18.942Z,43.60
2019-03-22T11:29:47.353Z,48.90
2019-03-22T11:32:15.795Z,44.40
2019-03-22T11:34:44.415Z,49.17
2019-03-22T11:37:12.942Z,42.63
2019-03-22T11:39:41.562Z,43.07
2019-03-22T11:42:10.215Z,45.27
2019-03-22T11:44:38.839Z,48.27
2019-03-22T11:47:07.360Z,45.13
2019-03-22T11:49:35.755Z,47.33
2019-03-22T11:52:04.557Z,45.50
2019-03-22T11:54:32.995Z,45.50
2019-03-22T11:57:01.409Z,41.23
2019-03-22T11:59:29.864Z,43.37
2019-03-22T12:01:58.251Z,41.87
2019-03-22T12:04:26.647Z,39.17
2019-03-22T12:06:55.279Z,46.57
2019-03-22T12:09:23.719Z,38.97
2019-03-22T12:11:52.120Z,36.87
2019-03-22T12:14:20.746Z,35.30
2019-03-22T12:16:49.131Z,30.57
2019-03-22T12:19:17.530Z,33.00
2019-03-22T12:21:46.167Z,30.43
2019-03-22T12:24:14.804Z,39.20
2019-03-22T12:26:43.428Z,37.77
2019-03-22T12:29:11.907Z,38.47
2019-03-22T12:31:40.288Z,37.30
2019-03-22T12:34:08.913Z,33.93
2019-03-22T12:36:37.367Z,46.13
2019-03-22T12:39:08.037Z,37.87
2019-03-22T12:41:36.676Z,33.23
2019-03-22T12:44:05.309Z,41.33
2019-03-22T12:46:34.020Z,36.03
2019-03-22T12:49:02.428Z,34.53
2019-03-22T12:51:31.070Z,38.87
2019-03-22T12:53:59.492Z,38.20
2019-03-22T12:56:28.103Z,32.43
2019-03-22T12:58:56.490Z,33.93
2019-03-22T13:01:24.891Z,28.10
2019-03-22T13:03:53.328Z,48.77
2019-03-22T13:06:21.734Z,43.60
2019-03-22T13:08:50.119Z,33.47
2019-03-22T13:11:18.503Z,33.87
2019-03-22T13:13:47.144Z,40.90
2019-03-22T13:16:15.616Z,31.40
2019-03-22T13:18:50.069Z,30.33
2019-03-22T13:21:14.421Z,32.70
2019-03-22T13:23:42.807Z,36.23
2019-03-22T13:26:11.464Z,33.87
2019-03-22T13:28:40.088Z,32.67
2019-03-22T13:31:08.737Z,30.30
2019-03-22T13:33:37.125Z,38.63
2019-03-22T13:36:06.180Z,37.63
2019-03-22T13:38:34.812Z,28.67
2019-03-22T13:41:03.256Z,32.03
2019-03-22T13:43:31.683Z,33.50
2019-03-22T13:46:00.308Z,34.73
2019-03-22T13:48:28.693Z,32.17
2019-03-22T13:50:57.094Z,34.87
2019-03-22T13:53:25.745Z,30.43
2019-03-22T13:55:54.395Z,28.90
2019-03-22T13:58:22.783Z,34.97
2019-03-22T14:00:51.392Z,32.60
2019-03-22T14:03:19.794Z,32.73
2019-03-22T14:05:48.185Z,28.60
2019-03-22T14:08:16.592Z,26.57
2019-03-22T14:10:45.222Z,29.50
2019-03-22T14:13:13.608Z,28.87
2019-03-22T14:15:42.008Z,31.40
2019-03-22T14:18:10.653Z,30.77
2019-03-22T14:20:39.276Z,29.40
2019-03-22T14:23:07.665Z,26.07
2019-03-22T14:25:36.304Z,38.67
2019-03-22T14:28:05.133Z,33.60
2019-03-22T14:30:33.525Z,37.17
2019-03-22T14:33:01.925Z,29.67
2019-03-22T14:35:30.308Z,32.10
2019-03-22T14:37:58.935Z,35.97
2019-03-22T14:40:27.575Z,34.27
2019-03-22T14:42:56.197Z,30.73
2019-03-22T14:45:24.596Z,34.77
2019-03-22T14:47:53.221Z,35.67
2019-03-22T14:50:21.609Z,39.17
2019-03-22T14:52:50.259Z,29.17
2019-03-22T14:55:18.648Z,24.73
2019-03-22T14:57:50.110Z,29.20
2019-03-22T15:00:17.714Z,24.10
2019-03-22T15:02:46.336Z,35.33
2019-03-22T15:05:14.978Z,18.97
2019-03-22T15:07:43.608Z,22.10
2019-03-22T15:10:13.249Z,19.73
2019-03-22T15:12:42.702Z,25.13
2019-03-22T15:15:15.906Z,24.73
2019-03-22T15:17:51.868Z,17.70
2019-03-22T15:20:27.884Z,16.80
2019-03-22T15:23:00.551Z,20.93
2019-03-22T15:25:39.660Z,23.33
2019-03-22T15:28:12.085Z,23.70
2019-03-22T15:30:48.239Z,27.53
2019-03-22T15:33:18.546Z,32.87
2019-03-22T15:36:04.653Z,27.80
2019-03-22T15:38:35.142Z,29.00
2019-03-22T15:41:03.848Z,28.43
2019-03-22T15:43:32.483Z,27.63
2019-03-22T15:46:01.138Z,24.53
2019-03-22T15:48:29.785Z,31.40
2019-03-22T15:50:58.173Z,27.97
2019-03-22T15:53:26.797Z,28.80
2019-03-22T15:55:55.195Z,29.47
2019-03-22T15:58:23.825Z,33.80
2019-03-22T16:00:52.223Z,33.83
2019-03-22T16:03:20.615Z,34.87
2019-03-22T16:05:49.008Z,33.20
2019-03-22T16:08:17.410Z,33.73
2019-03-22T16:10:45.792Z,32.67
2019-03-22T16:13:14.433Z,32.07
2019-03-22T16:15:42.819Z,30.60
2019-03-22T16:18:11.807Z,35.30
2019-03-22T16:20:40.157Z,31.70
2019-03-22T16:23:08.783Z,45.10
2019-03-22T16:25:37.252Z,41.00
2019-03-22T16:28:05.636Z,40.30
2019-03-22T16:30:34.267Z,49.43
2019-03-22T16:33:02.736Z,48.93
2019-03-22T16:35:31.369Z,43.60
2019-03-22T16:37:59.773Z,39.17
2019-03-22T16:40:28.203Z,52.40
2019-03-22T16:42:56.644Z,39.40
2019-03-22T16:45:38.652Z,42.37
2019-03-22T16:48:07.344Z,35.87
2019-03-22T16:50:35.746Z,50.73
2019-03-22T16:53:04.536Z,38.90
2019-03-22T16:55:33.015Z,48.13
2019-03-22T16:58:01.669Z,42.63
2019-03-22T17:00:30.307Z,43.17
2019-03-22T17:02:58.939Z,44.47
2019-03-22T17:05:27.340Z,49.63
2019-03-22T17:07:55.729Z,50.73
2019-03-22T17:10:24.118Z,52.67
2019-03-22T17:12:52.754Z,49.30
2019-03-22T17:15:21.141Z,49.80
2019-03-22T17:17:49.528Z,45.83
2019-03-22T17:20:18.022Z,55.07
2019-03-22T17:22:46.411Z,50.53
2019-03-22T17:25:14.867Z,42.87
2019-03-22T17:27:43.505Z,49.80
2019-03-22T17:30:12.468Z,48.97
2019-03-22T17:32:41.093Z,62.00
2019-03-22T17:35:09.815Z,53.30
2019-03-22T17:37:38.271Z,56.97
2019-03-22T17:40:08.136Z,50.63
2019-03-22T17:42:36.614Z,60.13
2019-03-22T17:45:11.376Z,54.40
2019-03-22T17:47:39.761Z,56.87
2019-03-22T17:50:10.202Z,62.03
2019-03-22T17:52:38.835Z,56.50
2019-03-22T17:55:08.797Z,63.73
2019-03-22T17:57:37.205Z,83.53
2019-03-22T18:00:08.712Z,63.33
2019-03-22T18:02:37.181Z,47.60
2019-03-22T18:05:09.606Z,57.83
2019-03-22T18:07:37.982Z,71.73
2019-03-22T18:10:08.947Z,68.47
2019-03-22T18:12:37.347Z,55.23
2019-03-22T18:15:08.546Z,66.07
2019-03-22T18:17:37.175Z,63.33
2019-03-22T18:20:08.721Z,60.70
2019-03-22T18:22:37.376Z,73.33
2019-03-22T18:25:07.845Z,64.17
2019-03-22T18:27:36.488Z,68.67
2019-03-22T18:30:10.960Z,65.73
2019-03-22T18:32:39.393Z,62.00
2019-03-22T18:35:08.784Z,62.20
2019-03-22T18:37:37.173Z,63.03
2019-03-22T18:40:07.909Z,67.27
2019-03-22T18:42:36.335Z,63.93
2019-03-22T18:45:07.211Z,78.00
2019-03-22T18:47:35.734Z,61.73
2019-03-22T18:50:06.823Z,70.37
2019-03-22T18:52:35.518Z,64.23
2019-03-22T18:55:05.581Z,59.67
2019-03-22T18:57:34.096Z,71.07
2019-03-22T19:00:02.930Z,70.43
2019-03-22T19:02:31.541Z,73.93
2019-03-22T19:05:00.349Z,76.33
2019-03-22T19:07:28.999Z,73.87
2019-03-22T19:09:57.387Z,91.40
2019-03-22T19:12:26.016Z,79.90
2019-03-22T19:14:54.644Z,89.73
2019-03-22T19:17:23.271Z,82.60
2019-03-22T19:19:51.678Z,77.23
2019-03-22T19:22:20.059Z,87.03
2019-03-22T19:24:48.700Z,74.67
2019-03-22T19:27:17.351Z,89.53
2019-03-22T19:29:45.738Z,75.03
2019-03-22T19:32:14.122Z,78.50
2019-03-22T19:34:42.760Z,77.70
2019-03-22T19:37:11.379Z,87.37
2019-03-22T19:39:39.795Z,84.60
2019-03-22T19:42:08.262Z,73.73
2019-03-22T19:44:36.886Z,83.03
2019-03-22T19:47:05.536Z,84.00
2019-03-22T19:49:33.935Z,74.97
2019-03-22T19:52:02.572Z,86.60
2019-03-22T19:54:31.194Z,90.20
2019-03-22T19:56:59.595Z,83.77
2019-03-22T19:59:27.988Z,77.63
2019-03-22T20:01:56.627Z,72.90
2019-03-22T20:04:25.279Z,83.63
2019-03-22T20:06:53.909Z,84.33
2019-03-22T20:09:22.294Z,70.53
2019-03-22T20:11:50.948Z,82.80
2019-03-22T20:14:19.588Z,77.10
2019-03-22T20:16:47.959Z,83.63
2019-03-22T20:19:16.366Z,84.83
2019-03-22T20:21:44.747Z,76.80
2019-03-22T20:24:13.132Z,83.90
2019-03-22T20:26:41.590Z,90.77
2019-03-22T20:29:09.985Z,91.10
2019-03-22T20:31:38.604Z,81.03
2019-03-22T20:34:07.327Z,83.83
2019-03-22T20:36:35.762Z,98.40
2019-03-22T20:39:06.146Z,85.50
2019-03-22T20:41:36.203Z,105.33
2019-03-22T20:44:04.725Z,93.77
2019-03-22T20:46:33.360Z,97.80
2019-03-22T20:49:01.759Z,81.27
2019-03-22T20:51:30.370Z,88.77
2019-03-22T20:53:58.750Z,80.83
2019-03-22T20:56:27.153Z,69.23
2019-03-22T20:58:55.535Z,74.83
2019-03-22T21:01:24.157Z,79.90
2019-03-22T21:03:52.791Z,86.00
2019-03-22T21:06:21.443Z,91.63
2019-03-22T21:08:50.048Z,84.27
2019-03-22T21:11:18.452Z,89.13
2019-03-22T21:13:46.841Z,95.40
2019-03-22T21:16:15.476Z,108.07
2019-03-22T21:18:44.119Z,85.30
2019-03-22T21:21:12.513Z,109.00
2019-03-22T21:23:40.898Z,96.50
2019-03-22T21:26:09.535Z,91.10
2019-03-22T21:28:37.976Z,96.27
2019-03-22T21:31:06.355Z,78.53
2019-03-22T21:33:35.002Z,77.67
2019-03-22T21:36:03.644Z,86.30
2019-03-22T21:38:32.075Z,85.50
2019-03-22T21:41:00.476Z,71.80
2019-03-22T21:43:29.096Z,73.20
2019-03-22T21:45:57.711Z,92.77
2019-03-22T21:48:26.104Z,81.33
2019-03-22T21:50:54.723Z,81.90
2019-03-22T21:53:23.418Z,98.40
2019-03-22T21:55:54.077Z,94.70
2019-03-22T21:58:21.857Z,92.53
2019-03-22T22:00:50.268Z,96.17
2019-03-22T22:03:18.703Z,80.13
2019-03-22T22:05:48.354Z,111.10
2019-03-22T22:08:16.740Z,86.47
2019-03-22T22:10:45.128Z,86.03
2019-03-22T22:13:13.522Z,78.13
2019-03-22T22:15:41.955Z,86.20
2019-03-22T22:18:10.350Z,81.03
2019-03-22T22:20:38.733Z,87.43
2019-03-22T22:23:07.168Z,87.93
2019-03-22T22:25:35.806Z,82.77
2019-03-22T22:28:04.431Z,90.13
2019-03-22T22:30:33.062Z,82.67
2019-03-22T22:33:01.453Z,80.37
2019-03-22T22:35:30.099Z,87.83
2019-03-22T22:37:58.728Z,84.30
2019-03-22T22:40:27.111Z,79.33
2019-03-22T22:42:55.527Z,80.10
2019-03-22T22:45:23.904Z,74.83
2019-03-22T22:47:52.358Z,77.87
2019-03-22T22:50:20.736Z,78.93
2019-03-22T22:52:49.366Z,87.30
2019-03-22T22:55:17.760Z,82.43
2019-03-22T22:57:46.386Z,88.57
2019-03-22T23:00:16.022Z,82.63
2019-03-22T23:02:44.797Z,102.90
2019-03-22T23:05:13.198Z,85.07
2019-03-22T23:07:41.911Z,90.43
2019-03-22T23:10:12.676Z,104.53
2019-03-22T23:12:41.038Z,89.43
2019-03-22T23:15:09.960Z,94.97
2019-03-22T23:17:38.595Z,101.17
2019-03-22T23:20:08.718Z,95.57
2019-03-22T23:22:37.115Z,104.83
2019-03-22T23:25:07.589Z,103.97
2019-03-22T23:27:36.948Z,99.17
2019-03-22T23:30:07.520Z,108.10
2019-03-22T23:32:35.905Z,126.00
2019-03-22T23:35:06.303Z,239.43
2019-03-22T23:37:34.695Z,279.60
2019-03-22T23:40:03.743Z,276.20
2019-03-22T23:42:32.375Z,228.80
2019-03-22T23:45:00.769Z,199.77
2019-03-22T23:47:29.178Z,177.80
2019-03-22T23:49:57.563Z,150.83
2019-03-22T23:52:26.187Z,124.53
2019-03-22T23:54:54.585Z,108.43
2019-03-22T23:57:23.222Z,134.07
2019-03-22T23:59:53.103Z,131.20
